Terminal Aerodrome Forecast
Issued by NWS

Home | Current Version | Previous Version | Text Only | Print | Product List | Glossary On
Versions: 1 2 3 4 5 6 7 8 9 10 11 12 13 14 15 16 17 18 19 20 21 22 23 24
000
FTUS41 KCAR 300608 CCA
TAFBHB
TAF COR
KBHB 300608Z 3006/3106 VRB03KT 1/2SM FG VV002
     FM301200 19007KT 2SM BR BKN005
     FM301400 19008KT 5SM BR BKN008
     FM301900 20012KT 6SM BR SCT025
     FM310000 20014G21KT 3SM BR BKN015 WS020/22045KT
     FM310300 20014G21KT 1SM BR BKN005 OVC010 WS020/22045KT
      AMD LTD TO CLD VIS AND WIND=

USA.gov is the U.S. government's official web portal to all federal, state and local government web resources and services.